HBLVC LSZF-LSZH

Flight info

Callsign HBLVC
Flight time 0h 23m
Altitude 6000
Route GIPOL
Aircraft DA42/L-SDEFGHY/L

Departure

Time 2026-05-05 18:29
Airport Birrfeld Airfield (LSZF)

Arrival

Time 2026-05-05 18:52
Airport Zürich Airport (LSZH)
Time Latitude Longitude Altitude Speed Heading
2026-05-05 18:17 47.44407 8.23096 1313 ft 0 kts 80°
2026-05-05 18:24 47.44407 8.23097 1324 ft 0 kts 80°
2026-05-05 18:24 47.44397 8.23113 1323 ft 5 kts 168°
2026-05-05 18:25 47.44390 8.23115 1323 ft 0 kts 168°
2026-05-05 18:25 47.44369 8.23063 1323 ft 10 kts 258°
2026-05-05 18:25 47.44355 8.22941 1323 ft 11 kts 260°
2026-05-05 18:26 47.44316 8.22895 1323 ft 5 kts 164°
2026-05-05 18:26 47.44312 8.22914 1323 ft 0 kts 80°
2026-05-05 18:27 47.44327 8.23040 1325 ft 1 kts 80°
2026-05-05 18:27 47.44365 8.23375 1323 ft 64 kts 81°
2026-05-05 18:28 47.44652 8.25101 1676 ft 93 kts 73°
2026-05-05 18:28 47.45108 8.25698 1871 ft 102 kts 356°
2026-05-05 18:28 47.45542 8.24998 1879 ft 108 kts 255°
2026-05-05 18:29 47.45296 8.23934 1943 ft 106 kts 257°
2026-05-05 18:29 47.45250 8.22913 2109 ft 101 kts 293°
2026-05-05 18:29 47.45820 8.22297 2225 ft 109 kts 346°
2026-05-05 18:29 47.46556 8.22459 2406 ft 108 kts 11°
2026-05-05 18:30 47.47314 8.22717 2529 ft 114 kts 12°
2026-05-05 18:30 47.48060 8.22992 2706 ft 112 kts 11°
2026-05-05 18:30 47.48818 8.23059 2841 ft 107 kts 338°
2026-05-05 18:30 47.49355 8.22392 2997 ft 100 kts 290°
2026-05-05 18:31 47.49405 8.21405 3025 ft 92 kts 255°
2026-05-05 18:31 47.49277 8.20575 3206 ft 78 kts 254°
2026-05-05 18:31 47.49156 8.19838 3387 ft 70 kts 252°
2026-05-05 18:31 47.49044 8.19187 3585 ft 64 kts 253°
2026-05-05 18:32 47.48939 8.18544 3781 ft 65 kts 253°
2026-05-05 18:32 47.48838 8.17892 3995 ft 67 kts 255°
2026-05-05 18:32 47.48711 8.17213 4211 ft 70 kts 253°
2026-05-05 18:32 47.48571 8.16476 4432 ft 79 kts 253°
2026-05-05 18:33 47.48416 8.15662 4653 ft 86 kts 254°
2026-05-05 18:33 47.48179 8.14828 4857 ft 91 kts 237°
2026-05-05 18:33 47.47770 8.14079 5010 ft 99 kts 233°
2026-05-05 18:33 47.47315 8.13239 5013 ft 112 kts 233°
2026-05-05 18:34 47.46809 8.12305 5007 ft 120 kts 233°
2026-05-05 18:34 47.46294 8.11352 5097 ft 117 kts 233°
2026-05-05 18:34 47.45790 8.10403 5201 ft 117 kts 233°
2026-05-05 18:34 47.45134 8.09707 5343 ft 117 kts 214°
2026-05-05 18:35 47.44423 8.09139 5512 ft 115 kts 213°
2026-05-05 18:35 47.43732 8.08599 5773 ft 112 kts 213°
2026-05-05 18:35 47.43113 8.07947 6003 ft 110 kts 239°
2026-05-05 18:35 47.43012 8.06799 6028 ft 126 kts 281°
2026-05-05 18:36 47.43659 8.05751 6006 ft 156 kts 326°
2026-05-05 18:36 47.44724 8.05490 6019 ft 153 kts 351°
2026-05-05 18:36 47.45807 8.05493 6008 ft 155 kts 353°
2026-05-05 18:36 47.46855 8.05524 6000 ft 147 kts 353°
2026-05-05 18:37 47.47853 8.05565 5998 ft 140 kts 353°
2026-05-05 18:37 47.48810 8.05612 6003 ft 136 kts 353°
2026-05-05 18:37 47.49744 8.05662 5993 ft 130 kts 353°
2026-05-05 18:37 47.50640 8.05729 6025 ft 133 kts 353°
2026-05-05 18:38 47.51596 8.05797 6013 ft 139 kts 353°
2026-05-05 18:38 47.52570 8.05856 6007 ft 142 kts 354°
2026-05-05 18:38 47.53559 8.05903 6007 ft 142 kts 353°
2026-05-05 18:38 47.54555 8.05951 6010 ft 144 kts 353°
2026-05-05 18:39 47.55558 8.05998 6011 ft 145 kts 353°
2026-05-05 18:39 47.56524 8.05820 5999 ft 134 kts 323°
2026-05-05 18:39 47.57072 8.04873 6000 ft 117 kts 278°
2026-05-05 18:39 47.56930 8.03776 6005 ft 111 kts 233°
2026-05-05 18:40 47.56238 8.03261 6011 ft 118 kts 197°
2026-05-05 18:40 47.55423 8.03129 6010 ft 124 kts 193°
2026-05-05 18:40 47.54498 8.02989 6005 ft 142 kts 193°
2026-05-05 18:40 47.53484 8.02813 6005 ft 151 kts 193°
2026-05-05 18:41 47.52427 8.02619 6007 ft 155 kts 193°
2026-05-05 18:41 47.51342 8.02425 6009 ft 159 kts 193°
2026-05-05 18:41 47.50240 8.02225 6003 ft 160 kts 193°
2026-05-05 18:41 47.49137 8.02022 5990 ft 158 kts 194°
2026-05-05 18:42 47.48032 8.02058 6009 ft 169 kts 168°
2026-05-05 18:42 47.47087 8.03217 6006 ft 185 kts 128°
2026-05-05 18:42 47.46775 8.05047 5995 ft 193 kts 89°
2026-05-05 18:42 47.47225 8.06903 6016 ft 195 kts 58°
2026-05-05 18:43 47.47986 8.08571 6014 ft 196 kts 54°
2026-05-05 18:43 47.48776 8.10225 6012 ft 198 kts 54°
2026-05-05 18:43 47.49582 8.11892 6012 ft 200 kts 53°
2026-05-05 18:43 47.50395 8.13566 6007 ft 201 kts 53°
2026-05-05 18:44 47.51178 8.15186 6002 ft 184 kts 53°
2026-05-05 18:44 47.51906 8.16685 6007 ft 177 kts 53°
2026-05-05 18:44 47.52613 8.18134 6012 ft 171 kts 53°
2026-05-05 18:44 47.53306 8.19539 6002 ft 167 kts 53°
2026-05-05 18:45 47.53934 8.21024 6006 ft 173 kts 62°
2026-05-05 18:45 47.54499 8.22625 6004 ft 177 kts 63°
2026-05-05 18:45 47.55060 8.24261 6006 ft 179 kts 63°
2026-05-05 18:45 47.55630 8.25916 5985 ft 182 kts 63°
2026-05-05 18:46 47.56214 8.27596 5806 ft 181 kts 63°
2026-05-05 18:46 47.56783 8.29237 5635 ft 178 kts 63°
2026-05-05 18:46 47.57340 8.30857 5456 ft 176 kts 63°
2026-05-05 18:46 47.57888 8.32486 5219 ft 178 kts 63°
2026-05-05 18:47 47.58436 8.34118 4957 ft 176 kts 63°
2026-05-05 18:47 47.58933 8.35759 4704 ft 174 kts 78°
2026-05-05 18:47 47.58941 8.36911 4541 ft 168 kts 104°
2026-05-05 18:47 47.58611 8.38538 4297 ft 163 kts 115°
2026-05-05 18:48 47.58079 8.39968 4091 ft 155 kts 136°
2026-05-05 18:48 47.57348 8.41097 3903 ft 151 kts 142°
2026-05-05 18:48 47.56596 8.42165 3703 ft 148 kts 142°
2026-05-05 18:48 47.55848 8.43197 3507 ft 146 kts 143°
2026-05-05 18:49 47.55105 8.44206 3297 ft 143 kts 142°
2026-05-05 18:49 47.54360 8.45217 3109 ft 148 kts 141°
2026-05-05 18:49 47.53601 8.46238 2920 ft 146 kts 140°
2026-05-05 18:49 47.52891 8.47237 2727 ft 127 kts 142°
2026-05-05 18:50 47.52304 8.48034 2554 ft 103 kts 142°
2026-05-05 18:50 47.51843 8.48669 2449 ft 82 kts 141°
2026-05-05 18:50 47.51377 8.49298 2299 ft 91 kts 139°
2026-05-05 18:50 47.50945 8.49894 2186 ft 81 kts 140°
2026-05-05 18:51 47.50498 8.50499 2063 ft 91 kts 139°
2026-05-05 18:51 47.50042 8.51124 1931 ft 86 kts 140°
2026-05-05 18:51 47.49625 8.51691 1844 ft 89 kts 139°
2026-05-05 18:51 47.49162 8.52327 1722 ft 85 kts 136°
2026-05-05 18:52 47.48725 8.52909 1595 ft 85 kts 139°
2026-05-05 18:52 47.48321 8.53469 1491 ft 79 kts 139°
2026-05-05 18:52 47.47918 8.54012 1397 ft 70 kts 136°
2026-05-05 18:52 47.47625 8.54398 1390 ft 46 kts 138°
2026-05-05 18:53 47.47345 8.54783 1384 ft 55 kts 136°
2026-05-05 18:53 47.47100 8.55113 1381 ft 37 kts 137°
2026-05-05 18:53 47.46871 8.55431 1382 ft 47 kts 138°
2026-05-05 18:53 47.46661 8.55718 1387 ft 38 kts 138°
2026-05-05 18:54 47.46466 8.55916 1404 ft 28 kts 159°
2026-05-05 18:54 47.46315 8.55976 1396 ft 18 kts 168°
2026-05-05 18:54 47.46270 8.55992 1403 ft 1 kts 167°
2026-05-05 18:54 47.46269 8.55993 1403 ft 0 kts 168°
2026-05-05 18:55 47.46220 8.56004 1404 ft 14 kts 176°
2026-05-05 18:55 47.46134 8.55996 1401 ft 11 kts 189°
2026-05-05 18:55 47.46066 8.55985 1402 ft 9 kts 188°
2026-05-05 18:55 47.46004 8.55974 1401 ft 9 kts 186°
2026-05-05 18:56 47.45970 8.55968 1401 ft 0 kts 193°
2026-05-05 18:57 47.45965 8.55966 1401 ft 4 kts 195°
2026-05-05 18:57 47.45954 8.55961 1401 ft 0 kts 196°
2026-05-05 18:57 47.45943 8.55956 1405 ft 7 kts 198°
2026-05-05 18:58 47.45905 8.55936 1402 ft 4 kts 199°
2026-05-05 18:58 47.45892 8.55929 1402 ft 0 kts 198°
2026-05-05 18:59 47.45877 8.55922 1408 ft 10 kts 199°
2026-05-05 18:59 47.45818 8.55892 1409 ft 8 kts 196°
2026-05-05 18:59 47.45728 8.55871 1403 ft 9 kts 187°
2026-05-05 19:00 47.45677 8.55861 1403 ft 7 kts 186°
2026-05-05 19:00 47.45642 8.55815 1402 ft 10 kts 278°
2026-05-05 19:00 47.45649 8.55701 1402 ft 12 kts 276°
2026-05-05 19:00 47.45658 8.55569 1398 ft 13 kts 276°
2026-05-05 19:01 47.45668 8.55427 1395 ft 12 kts 274°
2026-05-05 19:01 47.45676 8.55326 1397 ft 11 kts 276°
2026-05-05 19:01 47.45672 8.55208 1389 ft 12 kts 226°
2026-05-05 19:01 47.45602 8.55153 1388 ft 10 kts 200°
2026-05-05 19:02 47.45524 8.55116 1391 ft 17 kts 193°
2026-05-05 19:02 47.45396 8.55050 1390 ft 18 kts 199°
2026-05-05 19:02 47.45284 8.54997 1386 ft 17 kts 197°
2026-05-05 19:02 47.45188 8.54943 1387 ft 13 kts 217°
2026-05-05 19:03 47.45114 8.54891 1386 ft 10 kts 199°
2026-05-05 19:03 47.45053 8.54864 1386 ft 8 kts 188°
2026-05-05 19:03 47.45034 8.54904 1387 ft 1 kts 96°
2026-05-05 19:03 47.45062 8.54917 1387 ft 5 kts 292°
2026-05-05 19:04 47.45065 8.54905 1387 ft 0 kts 291°